sensor_id;sensor_type;location;lat;lon;timestamp;pressure;altitude;pressure_sealevel;temperature;humidity
5500;BME280;2772;42.700;23.304;2023-04-27T00:00:10;94846.56;;;9.77;87.47
5500;BME280;2772;42.700;23.304;2023-04-27T00:02:37;94850.16;;;9.72;84.62
5500;BME280;2772;42.700;23.304;2023-04-27T00:05:06;94849.53;;;9.75;85.91
5500;BME280;2772;42.700;23.304;2023-04-27T00:07:35;94852.19;;;9.75;84.98
5500;BME280;2772;42.700;23.304;2023-04-27T00:10:01;94858.38;;;9.62;84.86
5500;BME280;2772;42.700;23.304;2023-04-27T00:12:28;94856.22;;;9.64;88.34
5500;BME280;2772;42.700;23.304;2023-04-27T00:14:55;94860.78;;;9.72;88.30
5500;BME280;2772;42.700;23.304;2023-04-27T00:17:21;94868.72;;;9.63;85.34
5500;BME280;2772;42.700;23.304;2023-04-27T00:19:48;94862.03;;;9.66;87.26
5500;BME280;2772;42.700;23.304;2023-04-27T00:22:16;94862.41;;;9.51;85.59
5500;BME280;2772;42.700;23.304;2023-04-27T00:24:43;94866.16;;;9.50;87.51
5500;BME280;2772;42.700;23.304;2023-04-27T00:27:10;94862.28;;;9.56;86.33
5500;BME280;2772;42.700;23.304;2023-04-27T00:29:37;94866.78;;;9.55;85.90
5500;BME280;2772;42.700;23.304;2023-04-27T00:32:07;94857.66;;;9.70;93.73
5500;BME280;2772;42.700;23.304;2023-04-27T00:34:33;94862.31;;;9.64;90.10
5500;BME280;2772;42.700;23.304;2023-04-27T00:37:00;94869.75;;;9.54;87.92
5500;BME280;2772;42.700;23.304;2023-04-27T00:39:28;94861.84;;;9.32;87.98
5500;BME280;2772;42.700;23.304;2023-04-27T00:41:55;94860.56;;;9.29;87.65
5500;BME280;2772;42.700;23.304;2023-04-27T00:44:22;94863.44;;;9.41;94.83
5500;BME280;2772;42.700;23.304;2023-04-27T00:46:49;94862.25;;;9.25;87.08
5500;BME280;2772;42.700;23.304;2023-04-27T00:49:16;94860.88;;;9.28;91.02
5500;BME280;2772;42.700;23.304;2023-04-27T00:51:43;94864.94;;;9.03;87.59
5500;BME280;2772;42.700;23.304;2023-04-27T00:54:11;94859.00;;;9.06;92.17
5500;BME280;2772;42.700;23.304;2023-04-27T00:56:40;94864.38;;;9.15;93.41
5500;BME280;2772;42.700;23.304;2023-04-27T00:59:07;94870.59;;;9.10;89.47
5500;BME280;2772;42.700;23.304;2023-04-27T01:01:33;94875.84;;;9.02;89.36
5500;BME280;2772;42.700;23.304;2023-04-27T01:04:00;94869.13;;;9.04;90.17
5500;BME280;2772;42.700;23.304;2023-04-27T01:06:27;94868.91;;;9.14;91.58
5500;BME280;2772;42.700;23.304;2023-04-27T01:08:54;94865.22;;;9.02;89.64
5500;BME280;2772;42.700;23.304;2023-04-27T01:11:21;94880.25;;;9.06;89.70
5500;BME280;2772;42.700;23.304;2023-04-27T01:13:49;94877.78;;;8.88;91.13
5500;BME280;2772;42.700;23.304;2023-04-27T01:16:16;94879.94;;;8.86;90.91
5500;BME280;2772;42.700;23.304;2023-04-27T01:18:43;94871.75;;;8.96;95.08
5500;BME280;2772;42.700;23.304;2023-04-27T01:21:11;94872.41;;;9.01;92.11
5500;BME280;2772;42.700;23.304;2023-04-27T01:23:39;94869.63;;;9.06;95.40
5500;BME280;2772;42.700;23.304;2023-04-27T01:26:06;94886.97;;;9.04;91.15
5500;BME280;2772;42.700;23.304;2023-04-27T01:28:32;94876.06;;;8.92;90.52
5500;BME280;2772;42.700;23.304;2023-04-27T01:30:59;94882.00;;;8.89;89.72
5500;BME280;2772;42.700;23.304;2023-04-27T01:33:25;94881.47;;;9.00;100.00
5500;BME280;2772;42.700;23.304;2023-04-27T01:35:52;94889.75;;;8.99;92.71
5500;BME280;2772;42.700;23.304;2023-04-27T01:38:19;94885.25;;;8.86;93.89
5500;BME280;2772;42.700;23.304;2023-04-27T01:40:47;94883.44;;;8.95;96.48
5500;BME280;2772;42.700;23.304;2023-04-27T01:43:13;94889.78;;;9.07;99.24
5500;BME280;2772;42.700;23.304;2023-04-27T01:45:40;94890.88;;;9.06;100.00
5500;BME280;2772;42.700;23.304;2023-04-27T01:48:07;94895.28;;;9.11;98.42
5500;BME280;2772;42.700;23.304;2023-04-27T01:50:33;94896.31;;;9.01;95.37
5500;BME280;2772;42.700;23.304;2023-04-27T01:53:00;94884.16;;;9.09;96.74
5500;BME280;2772;42.700;23.304;2023-04-27T01:55:27;94895.38;;;9.19;100.00
5500;BME280;2772;42.700;23.304;2023-04-27T01:57:55;94884.28;;;9.26;100.00
5500;BME280;2772;42.700;23.304;2023-04-27T02:00:22;94890.16;;;9.14;97.17
5500;BME280;2772;42.700;23.304;2023-04-27T02:02:49;94896.31;;;9.01;95.48
5500;BME280;2772;42.700;23.304;2023-04-27T02:05:17;94894.97;;;8.90;90.24
5500;BME280;2772;42.700;23.304;2023-04-27T02:07:44;94900.19;;;8.60;90.80
5500;BME280;2772;42.700;23.304;2023-04-27T02:10:11;94894.34;;;8.71;90.35
5500;BME280;2772;42.700;23.304;2023-04-27T02:12:38;94904.19;;;8.71;89.68
5500;BME280;2772;42.700;23.304;2023-04-27T02:15:07;94898.28;;;8.74;89.51
5500;BME280;2772;42.700;23.304;2023-04-27T02:17:34;94895.63;;;8.60;90.77
5500;BME280;2772;42.700;23.304;2023-04-27T02:20:01;94897.94;;;8.53;91.04
5500;BME280;2772;42.700;23.304;2023-04-27T02:22:28;94905.41;;;8.38;91.78
5500;BME280;2772;42.700;23.304;2023-04-27T02:24:56;94905.50;;;8.46;91.16
5500;BME280;2772;42.700;23.304;2023-04-27T02:27:23;94912.88;;;8.36;91.96
5500;BME280;2772;42.700;23.304;2023-04-27T02:29:50;94908.66;;;8.35;92.72
5500;BME280;2772;42.700;23.304;2023-04-27T02:32:18;94904.53;;;8.42;91.82
5500;BME280;2772;42.700;23.304;2023-04-27T02:34:45;94904.47;;;8.34;92.24
5500;BME280;2772;42.700;23.304;2023-04-27T02:37:11;94915.25;;;8.24;92.88
5500;BME280;2772;42.700;23.304;2023-04-27T02:39:38;94908.47;;;8.18;92.32
5500;BME280;2772;42.700;23.304;2023-04-27T02:42:04;94907.16;;;8.15;92.27
5500;BME280;2772;42.700;23.304;2023-04-27T02:44:31;94907.75;;;8.12;93.00
5500;BME280;2772;42.700;23.304;2023-04-27T02:46:58;94907.97;;;8.16;92.52
5500;BME280;2772;42.700;23.304;2023-04-27T02:49:26;94917.00;;;8.15;92.44
5500;BME280;2772;42.700;23.304;2023-04-27T02:51:53;94912.28;;;8.12;92.69
5500;BME280;2772;42.700;23.304;2023-04-27T02:54:20;94920.13;;;8.17;91.72
5500;BME280;2772;42.700;23.304;2023-04-27T02:56:46;94914.75;;;8.08;91.38
5500;BME280;2772;42.700;23.304;2023-04-27T02:59:13;94919.16;;;8.13;92.51
5500;BME280;2772;42.700;23.304;2023-04-27T03:01:40;94927.00;;;7.90;92.71
5500;BME280;2772;42.700;23.304;2023-04-27T03:04:06;94922.59;;;7.99;92.97
5500;BME280;2772;42.700;23.304;2023-04-27T03:06:35;94915.03;;;8.06;92.61
5500;BME280;2772;42.700;23.304;2023-04-27T03:09:01;94928.69;;;8.13;92.34
5500;BME280;2772;42.700;23.304;2023-04-27T03:11:29;94923.88;;;8.02;92.25
5500;BME280;2772;42.700;23.304;2023-04-27T03:13:56;94929.38;;;8.05;92.79
5500;BME280;2772;42.700;23.304;2023-04-27T03:16:23;94922.41;;;7.96;93.09
5500;BME280;2772;42.700;23.304;2023-04-27T03:18:49;94936.25;;;7.93;93.75
5500;BME280;2772;42.700;23.304;2023-04-27T03:21:16;94938.78;;;7.98;93.62
5500;BME280;2772;42.700;23.304;2023-04-27T03:23:44;94942.41;;;7.88;93.95
5500;BME280;2772;42.700;23.304;2023-04-27T03:26:12;94938.09;;;7.79;95.03
5500;BME280;2772;42.700;23.304;2023-04-27T03:28:39;94940.16;;;7.82;96.12
5500;BME280;2772;42.700;23.304;2023-04-27T03:31:07;94952.91;;;7.66;95.15
5500;BME280;2772;42.700;23.304;2023-04-27T03:33:34;94938.09;;;7.79;96.09
5500;BME280;2772;42.700;23.304;2023-04-27T03:36:03;94953.50;;;7.90;95.04
5500;BME280;2772;42.700;23.304;2023-04-27T03:38:31;94948.22;;;7.90;95.60
5500;BME280;2772;42.700;23.304;2023-04-27T03:41:01;94945.56;;;7.77;95.41
5500;BME280;2772;42.700;23.304;2023-04-27T03:43:29;94954.31;;;7.77;96.93
5500;BME280;2772;42.700;23.304;2023-04-27T03:45:56;94958.50;;;7.78;96.77
5500;BME280;2772;42.700;23.304;2023-04-27T03:48:23;94955.19;;;7.86;96.08
5500;BME280;2772;42.700;23.304;2023-04-27T03:50:50;94961.66;;;7.80;96.36
5500;BME280;2772;42.700;23.304;2023-04-27T03:53:18;94962.34;;;7.72;96.58
5500;BME280;2772;42.700;23.304;2023-04-27T03:55:45;94961.25;;;7.73;97.59
5500;BME280;2772;42.700;23.304;2023-04-27T03:58:14;94956.59;;;7.65;96.19
5500;BME280;2772;42.700;23.304;2023-04-27T04:00:42;94970.16;;;7.64;97.75
5500;BME280;2772;42.700;23.304;2023-04-27T04:03:09;94960.63;;;7.63;97.37
5500;BME280;2772;42.700;23.304;2023-04-27T04:05:37;94973.75;;;7.54;96.99
5500;BME280;2772;42.700;23.304;2023-04-27T04:08:04;94970.34;;;7.54;97.73
5500;BME280;2772;42.700;23.304;2023-04-27T04:10:33;94971.88;;;7.41;97.91
5500;BME280;2772;42.700;23.304;2023-04-27T04:13:02;94977.78;;;7.52;98.21
5500;BME280;2772;42.700;23.304;2023-04-27T04:15:31;94987.59;;;7.51;98.39
5500;BME280;2772;42.700;23.304;2023-04-27T04:17:59;94986.94;;;7.59;98.05
5500;BME280;2772;42.700;23.304;2023-04-27T04:20:26;94985.84;;;7.60;97.13
5500;BME280;2772;42.700;23.304;2023-04-27T04:22:54;94992.00;;;7.56;97.47
5500;BME280;2772;42.700;23.304;2023-04-27T04:25:23;94997.31;;;7.56;97.32
5500;BME280;2772;42.700;23.304;2023-04-27T04:27:52;94991.06;;;7.65;98.47
5500;BME280;2772;42.700;23.304;2023-04-27T04:30:20;94999.59;;;7.62;97.51
5500;BME280;2772;42.700;23.304;2023-04-27T04:32:49;94999.59;;;7.62;97.38
5500;BME280;2772;42.700;23.304;2023-04-27T04:35:17;95009.03;;;7.68;96.23
5500;BME280;2772;42.700;23.304;2023-04-27T04:37:44;95004.75;;;7.72;95.75
5500;BME280;2772;42.700;23.304;2023-04-27T04:40:12;95001.59;;;7.84;95.80
5500;BME280;2772;42.700;23.304;2023-04-27T04:42:39;95005.56;;;7.86;94.76
5500;BME280;2772;42.700;23.304;2023-04-27T04:45:07;95013.16;;;7.93;94.12
5500;BME280;2772;42.700;23.304;2023-04-27T04:47:35;95011.25;;;7.93;94.85
5500;BME280;2772;42.700;23.304;2023-04-27T04:50:06;95018.75;;;8.05;93.19
5500;BME280;2772;42.700;23.304;2023-04-27T04:52:35;95027.09;;;8.12;92.95
5500;BME280;2772;42.700;23.304;2023-04-27T04:55:03;95022.31;;;8.14;92.41
5500;BME280;2772;42.700;23.304;2023-04-27T04:57:30;95029.28;;;8.10;93.67
5500;BME280;2772;42.700;23.304;2023-04-27T04:59:57;95036.53;;;8.18;92.10
5500;BME280;2772;42.700;23.304;2023-04-27T05:02:24;95032.94;;;8.28;90.95
5500;BME280;2772;42.700;23.304;2023-04-27T05:04:52;95027.84;;;8.45;90.60
5500;BME280;2772;42.700;23.304;2023-04-27T05:07:20;95025.00;;;8.55;89.20
5500;BME280;2772;42.700;23.304;2023-04-27T05:09:47;95036.72;;;8.54;89.79
5500;BME280;2772;42.700;23.304;2023-04-27T05:12:14;95041.22;;;8.67;89.41
5500;BME280;2772;42.700;23.304;2023-04-27T05:14:41;95040.34;;;8.58;90.25
5500;BME280;2772;42.700;23.304;2023-04-27T05:17:09;95037.31;;;8.64;88.27
5500;BME280;2772;42.700;23.304;2023-04-27T05:19:36;95040.75;;;8.65;87.67
5500;BME280;2772;42.700;23.304;2023-04-27T05:22:04;95037.78;;;8.80;87.37
5500;BME280;2772;42.700;23.304;2023-04-27T05:24:33;95050.19;;;8.71;87.36
5500;BME280;2772;42.700;23.304;2023-04-27T05:27:00;95046.53;;;8.67;87.55
5500;BME280;2772;42.700;23.304;2023-04-27T05:29:27;95058.94;;;8.71;89.21
5500;BME280;2772;42.700;23.304;2023-04-27T05:31:54;95052.94;;;8.79;89.01
5500;BME280;2772;42.700;23.304;2023-04-27T05:34:21;95044.66;;;8.81;88.41
5500;BME280;2772;42.700;23.304;2023-04-27T05:36:48;95051.25;;;8.97;86.94
5500;BME280;2772;42.700;23.304;2023-04-27T05:39:14;95058.34;;;8.88;86.90
5500;BME280;2772;42.700;23.304;2023-04-27T05:41:42;95053.03;;;8.88;88.31
5500;BME280;2772;42.700;23.304;2023-04-27T05:44:09;95067.47;;;8.95;87.52
5500;BME280;2772;42.700;23.304;2023-04-27T05:46:36;95050.78;;;8.81;87.40
5500;BME280;2772;42.700;23.304;2023-04-27T05:49:03;95053.41;;;8.95;87.51
5500;BME280;2772;42.700;23.304;2023-04-27T05:51:30;95054.88;;;9.01;87.75
5500;BME280;2772;42.700;23.304;2023-04-27T05:53:57;95059.50;;;9.09;86.93
5500;BME280;2772;42.700;23.304;2023-04-27T05:56:26;95060.78;;;9.11;86.88
5500;BME280;2772;42.700;23.304;2023-04-27T05:58:54;95051.41;;;9.14;87.04
5500;BME280;2772;42.700;23.304;2023-04-27T06:01:20;95061.91;;;9.32;85.52
5500;BME280;2772;42.700;23.304;2023-04-27T06:03:47;95052.47;;;9.26;84.66
5500;BME280;2772;42.700;23.304;2023-04-27T06:06:14;95052.69;;;9.30;84.22
5500;BME280;2772;42.700;23.304;2023-04-27T06:08:41;95067.03;;;9.29;84.15
5500;BME280;2772;42.700;23.304;2023-04-27T06:11:07;95055.88;;;9.40;83.78
5500;BME280;2772;42.700;23.304;2023-04-27T06:13:34;95068.38;;;9.40;84.05
5500;BME280;2772;42.700;23.304;2023-04-27T06:16:03;95058.94;;;9.47;83.06
5500;BME280;2772;42.700;23.304;2023-04-27T06:18:30;95061.59;;;9.34;84.57
5500;BME280;2772;42.700;23.304;2023-04-27T06:21:00;95066.31;;;9.50;83.68
5500;BME280;2772;42.700;23.304;2023-04-27T06:23:27;95056.34;;;9.56;81.76
5500;BME280;2772;42.700;23.304;2023-04-27T06:25:54;95056.56;;;9.68;89.26
5500;BME280;2772;42.700;23.304;2023-04-27T06:28:20;95053.19;;;9.76;87.87
5500;BME280;2772;42.700;23.304;2023-04-27T06:30:47;95048.72;;;9.85;81.69
5500;BME280;2772;42.700;23.304;2023-04-27T06:33:15;95044.28;;;9.94;81.61
5500;BME280;2772;42.700;23.304;2023-04-27T06:35:43;95049.41;;;9.91;81.46
5500;BME280;2772;42.700;23.304;2023-04-27T06:38:10;95049.09;;;9.92;79.13
5500;BME280;2772;42.700;23.304;2023-04-27T06:40:37;95044.28;;;9.94;78.65
5500;BME280;2772;42.700;23.304;2023-04-27T06:43:05;95039.72;;;9.95;78.86
5500;BME280;2772;42.700;23.304;2023-04-27T06:45:32;95047.56;;;10.00;77.90
5500;BME280;2772;42.700;23.304;2023-04-27T06:48:00;95041.03;;;10.06;78.02
5500;BME280;2772;42.700;23.304;2023-04-27T06:50:29;95040.53;;;10.17;76.83
5500;BME280;2772;42.700;23.304;2023-04-27T06:52:55;95050.16;;;10.35;74.45
5500;BME280;2772;42.700;23.304;2023-04-27T06:55:22;95037.81;;;10.39;74.92
5500;BME280;2772;42.700;23.304;2023-04-27T06:57:49;95036.38;;;10.33;74.29
5500;BME280;2772;42.700;23.304;2023-04-27T07:00:16;95031.53;;;10.35;74.28
5500;BME280;2772;42.700;23.304;2023-04-27T07:02:43;95042.41;;;10.47;74.05
5500;BME280;2772;42.700;23.304;2023-04-27T07:05:10;95042.56;;;10.51;74.20
5500;BME280;2772;42.700;23.304;2023-04-27T07:07:38;95041.19;;;10.62;74.11
5500;BME280;2772;42.700;23.304;2023-04-27T07:10:06;95046.88;;;10.69;71.14
5500;BME280;2772;42.700;23.304;2023-04-27T07:12:33;95040.34;;;10.83;72.32
5500;BME280;2772;42.700;23.304;2023-04-27T07:15:00;95035.34;;;10.90;71.82
5500;BME280;2772;42.700;23.304;2023-04-27T07:17:28;95059.91;;;10.79;70.53
5500;BME280;2772;42.700;23.304;2023-04-27T07:19:55;95032.00;;;10.76;69.95
5500;BME280;2772;42.700;23.304;2023-04-27T07:22:21;95031.69;;;10.69;69.59
5500;BME280;2772;42.700;23.304;2023-04-27T07:24:49;95038.75;;;10.74;69.39
5500;BME280;2772;42.700;23.304;2023-04-27T07:27:16;95035.66;;;10.89;69.73
5500;BME280;2772;42.700;23.304;2023-04-27T07:29:43;95040.19;;;10.88;67.32
5500;BME280;2772;42.700;23.304;2023-04-27T07:32:10;95033.84;;;11.23;80.45
5500;BME280;2772;42.700;23.304;2023-04-27T07:34:37;95030.41;;;11.32;71.28
5500;BME280;2772;42.700;23.304;2023-04-27T07:37:03;95031.81;;;11.29;66.33
5500;BME280;2772;42.700;23.304;2023-04-27T07:39:30;95038.56;;;11.52;67.35
5500;BME280;2772;42.700;23.304;2023-04-27T07:41:58;95040.50;;;11.69;64.66
5500;BME280;2772;42.700;23.304;2023-04-27T07:44:25;95041.28;;;11.69;63.04
5500;BME280;2772;42.700;23.304;2023-04-27T07:46:53;95033.59;;;11.76;65.73
5500;BME280;2772;42.700;23.304;2023-04-27T07:49:22;95038.78;;;11.81;63.21
5500;BME280;2772;42.700;23.304;2023-04-27T07:51:49;95034.22;;;11.99;63.33
5500;BME280;2772;42.700;23.304;2023-04-27T07:54:16;95039.84;;;12.06;61.50
5500;BME280;2772;42.700;23.304;2023-04-27T07:56:43;95037.47;;;12.04;65.34
5500;BME280;2772;42.700;23.304;2023-04-27T07:59:11;95040.91;;;12.13;61.00
5500;BME280;2772;42.700;23.304;2023-04-27T08:01:39;95031.63;;;12.28;59.38
5500;BME280;2772;42.700;23.304;2023-04-27T08:04:05;95035.88;;;12.20;59.28
5500;BME280;2772;42.700;23.304;2023-04-27T08:06:32;95029.44;;;12.30;63.68
5500;BME280;2772;42.700;23.304;2023-04-27T08:08:59;95038.38;;;12.34;58.12
5500;BME280;2772;42.700;23.304;2023-04-27T08:11:27;95037.72;;;12.45;57.03
5500;BME280;2772;42.700;23.304;2023-04-27T08:13:54;95037.53;;;12.50;57.30
5500;BME280;2772;42.700;23.304;2023-04-27T08:16:22;95032.06;;;12.38;57.86
5500;BME280;2772;42.700;23.304;2023-04-27T08:18:49;95032.22;;;12.33;58.22
5500;BME280;2772;42.700;23.304;2023-04-27T08:21:16;95038.22;;;12.30;58.40
5500;BME280;2772;42.700;23.304;2023-04-27T08:23:43;95030.47;;;12.46;59.38
5500;BME280;2772;42.700;23.304;2023-04-27T08:26:13;95038.25;;;12.68;59.47
5500;BME280;2772;42.700;23.304;2023-04-27T08:28:40;95041.72;;;12.68;56.62
5500;BME280;2772;42.700;23.304;2023-04-27T08:31:06;95036.53;;;12.63;58.33
5500;BME280;2772;42.700;23.304;2023-04-27T08:33:34;95034.91;;;12.79;57.49
5500;BME280;2772;42.700;23.304;2023-04-27T08:36:01;95036.84;;;13.08;60.61
5500;BME280;2772;42.700;23.304;2023-04-27T08:38:28;95031.34;;;13.05;59.39
5500;BME280;2772;42.700;23.304;2023-04-27T08:40:54;95033.63;;;13.15;57.86
5500;BME280;2772;42.700;23.304;2023-04-27T08:43:21;95043.69;;;13.18;55.93
5500;BME280;2772;42.700;23.304;2023-04-27T08:45:48;95030.19;;;13.14;56.27
5500;BME280;2772;42.700;23.304;2023-04-27T08:48:16;95030.03;;;13.19;57.68
5500;BME280;2772;42.700;23.304;2023-04-27T08:50:45;95015.13;;;13.30;57.70
5500;BME280;2772;42.700;23.304;2023-04-27T08:53:16;95031.31;;;13.34;57.77
5500;BME280;2772;42.700;23.304;2023-04-27T08:55:43;95023.16;;;13.30;56.59
5500;BME280;2772;42.700;23.304;2023-04-27T08:58:10;95038.03;;;13.40;55.85
5500;BME280;2772;42.700;23.304;2023-04-27T09:00:37;95025.22;;;13.33;55.12
5500;BME280;2772;42.700;23.304;2023-04-27T09:03:05;95015.53;;;13.20;55.77
5500;BME280;2772;42.700;23.304;2023-04-27T09:05:32;95028.94;;;13.41;55.99
5500;BME280;2772;42.700;23.304;2023-04-27T09:08:01;95020.44;;;13.39;57.69
5500;BME280;2772;42.700;23.304;2023-04-27T09:10:30;95011.56;;;13.67;57.12
5500;BME280;2772;42.700;23.304;2023-04-27T09:13:08;95003.28;;;13.93;56.14
5500;BME280;2772;42.700;23.304;2023-04-27T09:15:40;95025.00;;;13.79;53.95
5500;BME280;2772;42.700;23.304;2023-04-27T09:18:13;95027.16;;;13.65;53.04
5500;BME280;2772;42.700;23.304;2023-04-27T09:20:44;95021.34;;;13.63;54.24
5500;BME280;2772;42.700;23.304;2023-04-27T09:23:24;95020.44;;;13.59;53.46
5500;BME280;2772;42.700;23.304;2023-04-27T09:25:52;95028.72;;;13.66;53.56
5500;BME280;2772;42.700;23.304;2023-04-27T09:28:19;95016.19;;;13.58;53.55
5500;BME280;2772;42.700;23.304;2023-04-27T09:30:51;95009.31;;;13.69;53.20
5500;BME280;2772;42.700;23.304;2023-04-27T09:33:21;94991.50;;;13.94;54.67
5500;BME280;2772;42.700;23.304;2023-04-27T09:35:48;94998.44;;;14.07;52.16
5500;BME280;2772;42.700;23.304;2023-04-27T09:38:17;95009.56;;;13.97;51.28
5500;BME280;2772;42.700;23.304;2023-04-27T09:40:44;95004.13;;;14.05;51.12
5500;BME280;2772;42.700;23.304;2023-04-27T09:43:11;94986.19;;;14.18;50.53
5500;BME280;2772;42.700;23.304;2023-04-27T09:45:38;94997.09;;;14.33;50.65
5500;BME280;2772;42.700;23.304;2023-04-27T09:48:05;94992.41;;;14.43;48.88
5500;BME280;2772;42.700;23.304;2023-04-27T09:50:34;94979.94;;;14.47;49.60
5500;BME280;2772;42.700;23.304;2023-04-27T09:53:01;94985.97;;;14.68;50.01
5500;BME280;2772;42.700;23.304;2023-04-27T09:55:34;94976.94;;;14.84;49.08
5500;BME280;2772;42.700;23.304;2023-04-27T09:58:14;94975.69;;;15.06;49.18
5500;BME280;2772;42.700;23.304;2023-04-27T10:00:55;94972.81;;;14.63;48.40
5500;BME280;2772;42.700;23.304;2023-04-27T10:03:28;94977.81;;;14.64;48.39
5500;BME280;2772;42.700;23.304;2023-04-27T10:06:29;94990.09;;;14.65;48.15
5500;BME280;2772;42.700;23.304;2023-04-27T10:09:02;94992.66;;;14.50;48.40
5500;BME280;2772;42.700;23.304;2023-04-27T10:11:37;94975.25;;;14.56;47.97
5500;BME280;2772;42.700;23.304;2023-04-27T10:14:06;94983.53;;;14.63;49.01
5500;BME280;2772;42.700;23.304;2023-04-27T10:16:39;94988.88;;;14.63;48.19
5500;BME280;2772;42.700;23.304;2023-04-27T10:19:09;94992.31;;;14.63;47.73
5500;BME280;2772;42.700;23.304;2023-04-27T10:21:36;94980.50;;;14.88;48.93
5500;BME280;2772;42.700;23.304;2023-04-27T10:24:06;94972.63;;;15.19;49.27
5500;BME280;2772;42.700;23.304;2023-04-27T10:26:35;94971.16;;;15.46;50.89
5500;BME280;2772;42.700;23.304;2023-04-27T10:29:06;94991.97;;;15.25;45.39
5500;BME280;2772;42.700;23.304;2023-04-27T10:31:33;94981.03;;;15.30;44.61
5500;BME280;2772;42.700;23.304;2023-04-27T10:34:08;94980.13;;;15.38;43.32
5500;BME280;2772;42.700;23.304;2023-04-27T10:36:35;94971.28;;;15.37;44.75
5500;BME280;2772;42.700;23.304;2023-04-27T10:39:12;94975.19;;;15.40;44.46
5500;BME280;2772;42.700;23.304;2023-04-27T10:41:48;94984.28;;;15.23;44.36
5500;BME280;2772;42.700;23.304;2023-04-27T10:44:16;94992.56;;;15.18;44.54
5500;BME280;2772;42.700;23.304;2023-04-27T10:46:49;94972.78;;;15.11;43.98
5500;BME280;2772;42.700;23.304;2023-04-27T10:49:16;94983.16;;;15.12;44.06
5500;BME280;2772;42.700;23.304;2023-04-27T10:51:43;94954.88;;;15.15;46.55
5500;BME280;2772;42.700;23.304;2023-04-27T10:54:10;94967.84;;;15.01;43.50
5500;BME280;2772;42.700;23.304;2023-04-27T10:56:37;94975.47;;;15.11;43.27
5500;BME280;2772;42.700;23.304;2023-04-27T10:59:06;94975.25;;;15.16;43.14
5500;BME280;2772;42.700;23.304;2023-04-27T11:01:33;94968.50;;;15.10;43.64
5500;BME280;2772;42.700;23.304;2023-04-27T11:04:00;94966.13;;;15.32;43.93
5500;BME280;2772;42.700;23.304;2023-04-27T11:06:28;94967.69;;;15.33;42.87
5500;BME280;2772;42.700;23.304;2023-04-27T11:08:56;94964.25;;;15.21;42.76
5500;BME280;2772;42.700;23.304;2023-04-27T11:11:23;94958.44;;;15.31;42.91
5500;BME280;2772;42.700;23.304;2023-04-27T11:13:50;94974.56;;;15.07;43.44
5500;BME280;2772;42.700;23.304;2023-04-27T11:16:18;94964.84;;;15.14;43.66
5500;BME280;2772;42.700;23.304;2023-04-27T11:18:45;94965.03;;;15.45;45.73
5500;BME280;2772;42.700;23.304;2023-04-27T11:21:14;94989.03;;;15.54;43.19
5500;BME280;2772;42.700;23.304;2023-04-27T11:23:41;94967.38;;;15.47;43.08
5500;BME280;2772;42.700;23.304;2023-04-27T11:26:09;94968.47;;;15.58;43.43
5500;BME280;2772;42.700;23.304;2023-04-27T11:28:36;94972.84;;;15.78;43.99
5500;BME280;2772;42.700;23.304;2023-04-27T11:31:03;94970.59;;;15.80;43.21
5500;BME280;2772;42.700;23.304;2023-04-27T11:33:32;94977.28;;;15.58;43.69
5500;BME280;2772;42.700;23.304;2023-04-27T11:35:59;94979.00;;;15.78;43.58
5500;BME280;2772;42.700;23.304;2023-04-27T11:38:32;94991.03;;;15.57;42.78
5500;BME280;2772;42.700;23.304;2023-04-27T11:41:00;94986.72;;;15.28;43.08
5500;BME280;2772;42.700;23.304;2023-04-27T11:43:27;94988.97;;;15.26;43.34
5500;BME280;2772;42.700;23.304;2023-04-27T11:45:54;94977.22;;;15.31;43.38
5500;BME280;2772;42.700;23.304;2023-04-27T11:48:22;94984.25;;;15.35;43.28
5500;BME280;2772;42.700;23.304;2023-04-27T11:50:51;94976.53;;;15.46;43.86
5500;BME280;2772;42.700;23.304;2023-04-27T11:53:28;94988.81;;;15.35;44.82
5500;BME280;2772;42.700;23.304;2023-04-27T11:55:58;94985.25;;;15.31;44.02
5500;BME280;2772;42.700;23.304;2023-04-27T11:58:26;94980.88;;;15.50;43.68
5500;BME280;2772;42.700;23.304;2023-04-27T12:00:55;94986.16;;;15.47;43.16
5500;BME280;2772;42.700;23.304;2023-04-27T12:03:22;94992.56;;;15.42;42.72
5500;BME280;2772;42.700;23.304;2023-04-27T12:05:50;94978.75;;;15.56;43.00
5500;BME280;2772;42.700;23.304;2023-04-27T12:08:17;94985.31;;;15.58;44.09
5500;BME280;2772;42.700;23.304;2023-04-27T12:10:44;94984.03;;;15.40;42.95
5500;BME280;2772;42.700;23.304;2023-04-27T12:13:11;94979.22;;;15.46;45.02
5500;BME280;2772;42.700;23.304;2023-04-27T12:15:38;94986.28;;;15.26;43.08
5500;BME280;2772;42.700;23.304;2023-04-27T12:18:05;94999.91;;;15.33;43.06
5500;BME280;2772;42.700;23.304;2023-04-27T12:20:32;94993.88;;;15.24;42.24
5500;BME280;2772;42.700;23.304;2023-04-27T12:23:00;94992.22;;;15.20;42.96
5500;BME280;2772;42.700;23.304;2023-04-27T12:25:27;94989.75;;;15.15;42.98
5500;BME280;2772;42.700;23.304;2023-04-27T12:27:54;94995.22;;;15.30;42.70
5500;BME280;2772;42.700;23.304;2023-04-27T12:30:22;94990.50;;;15.39;42.36
5500;BME280;2772;42.700;23.304;2023-04-27T12:32:49;94991.50;;;15.59;43.71
5500;BME280;2772;42.700;23.304;2023-04-27T12:35:16;94992.81;;;15.65;45.30
5500;BME280;2772;42.700;23.304;2023-04-27T12:37:43;95001.81;;;15.84;43.23
5500;BME280;2772;42.700;23.304;2023-04-27T12:40:11;94990.56;;;15.67;43.70
5500;BME280;2772;42.700;23.304;2023-04-27T12:42:38;94992.81;;;15.65;42.68
5500;BME280;2772;42.700;23.304;2023-04-27T12:45:06;94994.09;;;15.83;43.64
5500;BME280;2772;42.700;23.304;2023-04-27T12:47:33;94985.09;;;15.91;43.31
5500;BME280;2772;42.700;23.304;2023-04-27T12:50:00;94993.84;;;15.88;42.52
5500;BME280;2772;42.700;23.304;2023-04-27T12:52:26;95000.06;;;15.76;42.39
5500;BME280;2772;42.700;23.304;2023-04-27T12:54:53;95003.47;;;15.49;42.10
5500;BME280;2772;42.700;23.304;2023-04-27T12:57:24;94984.19;;;15.71;42.58
5500;BME280;2772;42.700;23.304;2023-04-27T12:59:52;94999.50;;;15.71;42.77
5500;BME280;2772;42.700;23.304;2023-04-27T13:02:18;94986.91;;;15.87;42.56
5500;BME280;2772;42.700;23.304;2023-04-27T13:04:45;94986.53;;;15.73;42.21
5500;BME280;2772;42.700;23.304;2023-04-27T13:07:12;94979.34;;;15.77;43.11
5500;BME280;2772;42.700;23.304;2023-04-27T13:09:38;94987.59;;;15.84;42.34
5500;BME280;2772;42.700;23.304;2023-04-27T13:12:06;94980.09;;;16.05;42.83
5500;BME280;2772;42.700;23.304;2023-04-27T13:14:34;94993.50;;;15.89;42.65
5500;BME280;2772;42.700;23.304;2023-04-27T13:17:01;94976.97;;;15.88;42.50
5500;BME280;2772;42.700;23.304;2023-04-27T13:19:28;94978.75;;;15.83;42.54